Downpatrick, United Kingdom
Current Conditions -  °F | °C
As of 11:50 AM on Saturday 25 Oct 2014 (Local Time) from EGAC Reporting Station
Broken Clouds Broken Clouds  
Wind Chill: 54°   Ceiling: 4000
Heat Index: 54°   Visibility: 6mi
Dew Point: 46°   Wind: 21mph
Humidity: 77%   Direction: 220°SW
Pressure: 29.77"   Gusts: 35mph
Location:  54.33°N, 5.7°W
Report Text: EGAC 251050Z 22018G30KT 9999 FEW017 SCT025 BKN040 12/08 Q1008
Loading
Personal Weather Stations






























Interactive Weather Map
Tropical Storm Tracking
New forecast layout! Learn more

10-Day Weather Forecast

Advertisements
Track Severe Weather on mobile